createdAt,value
2019-04-22T00:01:17.125Z,20.67
2019-04-22T00:03:53.236Z,19.37
2019-04-22T00:06:44.419Z,20.07
2019-04-22T00:09:20.916Z,20.23
2019-04-22T00:11:52.929Z,21.13
2019-04-22T00:14:23.013Z,20.43
2019-04-22T00:17:13.702Z,20.77
2019-04-22T00:19:38.940Z,20.93
2019-04-22T00:22:15.369Z,20.60
2019-04-22T00:24:46.191Z,21.43
2019-04-22T00:27:23.794Z,20.57
2019-04-22T00:30:13.252Z,20.17
2019-04-22T00:32:49.268Z,19.27
2019-04-22T00:35:25.596Z,19.10
2019-04-22T00:38:08.932Z,17.40
2019-04-22T00:43:13.326Z,17.83
2019-04-22T00:45:44.752Z,17.00
2019-04-22T00:48:25.473Z,17.67
2019-04-22T00:51:01.685Z,17.30
2019-04-22T00:53:31.295Z,17.03
2019-04-22T00:56:13.797Z,17.57
2019-04-22T01:01:19.096Z,17.40
2019-04-22T01:04:07.197Z,19.23
2019-04-22T01:06:38.519Z,19.00
2019-04-22T01:09:08.752Z,17.57
2019-04-22T01:11:33.736Z,19.20
2019-04-22T01:14:09.109Z,18.73
2019-04-22T01:16:42.973Z,17.93
2019-04-22T01:19:16.738Z,17.97
2019-04-22T01:22:06.717Z,18.17
2019-04-22T01:24:24.782Z,19.87
2019-04-22T01:26:49.503Z,18.67
2019-04-22T01:29:20.206Z,17.50
2019-04-22T01:31:44.231Z,19.37
2019-04-22T01:34:28.878Z,19.37
2019-04-22T01:37:07.759Z,18.77
2019-04-22T01:39:49.861Z,18.57
2019-04-22T01:42:15.787Z,18.77
2019-04-22T01:44:50.811Z,18.37
2019-04-22T01:47:34.270Z,17.27
2019-04-22T01:50:10.078Z,16.53
2019-04-22T01:52:37.995Z,15.63
2019-04-22T01:55:20.047Z,15.67
2019-04-22T01:57:43.014Z,16.03
2019-04-22T02:00:11.328Z,15.17
2019-04-22T02:02:59.108Z,14.47
2019-04-22T02:05:30.043Z,14.03
2019-04-22T02:08:09.781Z,13.33
2019-04-22T02:10:39.166Z,13.40
2019-04-22T02:13:15.873Z,13.23
2019-04-22T02:15:47.786Z,13.10
2019-04-22T02:18:23.200Z,13.10
2019-04-22T02:20:53.027Z,12.70
2019-04-22T02:26:07.625Z,12.73
2019-04-22T02:36:35.871Z,12.23
2019-04-22T02:39:07.476Z,12.70
2019-04-22T02:49:22.653Z,11.00
2019-04-22T02:51:36.992Z,10.77
2019-04-22T02:57:00.359Z,12.10
2019-04-22T03:04:32.292Z,12.37
2019-04-22T03:07:03.347Z,12.00
2019-04-22T03:09:40.329Z,12.97
2019-04-22T03:15:06.552Z,13.23
2019-04-22T03:17:41.343Z,11.80
2019-04-22T03:20:04.152Z,11.47
2019-04-22T03:22:39.027Z,11.47
2019-04-22T03:25:32.371Z,11.17
2019-04-22T03:27:37.103Z,11.93
2019-04-22T03:37:52.882Z,10.77
2019-04-22T03:45:57.196Z,10.40
2019-04-22T03:48:38.342Z,11.27
2019-04-22T03:51:18.446Z,10.10
2019-04-22T03:53:43.792Z,10.57
2019-04-22T03:56:36.541Z,10.40
2019-04-22T04:01:44.535Z,10.80
2019-04-22T04:04:21.009Z,10.70
2019-04-22T04:06:43.254Z,11.17
2019-04-22T04:09:09.383Z,11.03
2019-04-22T04:11:52.062Z,9.67
2019-04-22T04:14:22.303Z,10.97
2019-04-22T04:17:02.094Z,11.17
2019-04-22T04:24:55.511Z,10.10
2019-04-22T04:27:37.085Z,9.40
2019-04-22T04:32:29.930Z,10.30
2019-04-22T04:40:12.469Z,7.90
2019-04-22T04:42:37.182Z,8.03
2019-04-22T04:50:06.940Z,8.10
2019-04-22T05:03:13.671Z,9.57
2019-04-22T05:05:43.280Z,9.67
2019-04-22T05:13:16.670Z,10.77
2019-04-22T05:15:43.383Z,10.07
2019-04-22T05:18:26.536Z,10.10
2019-04-22T05:21:06.807Z,10.23
2019-04-22T05:23:24.974Z,9.63
2019-04-22T05:25:57.974Z,10.87
2019-04-22T05:28:42.937Z,10.37
2019-04-22T05:31:03.393Z,10.37
2019-04-22T05:33:34.942Z,10.30
2019-04-22T05:36:08.385Z,10.23
2019-04-22T05:38:50.126Z,10.33
2019-04-22T05:41:17.831Z,10.20
2019-04-22T05:43:50.306Z,10.53
2019-04-22T05:46:22.467Z,10.20
2019-04-22T05:48:59.728Z,9.67
2019-04-22T05:51:35.479Z,9.53
2019-04-22T05:54:12.922Z,9.03
2019-04-22T05:56:37.245Z,9.97
2019-04-22T05:59:12.525Z,9.70
2019-04-22T06:01:51.538Z,11.38
2019-04-22T06:04:22.016Z,10.27
2019-04-22T06:06:53.597Z,9.80
2019-04-22T06:09:28.793Z,10.30
2019-04-22T06:11:58.968Z,9.57
2019-04-22T06:14:31.383Z,9.77
2019-04-22T06:17:20.239Z,9.10
2019-04-22T06:19:54.172Z,9.60
2019-04-22T06:22:30.554Z,9.07
2019-04-22T06:25:01.159Z,9.50
2019-04-22T06:27:38.689Z,9.43
2019-04-22T06:30:04.340Z,8.77
2019-04-22T06:32:53.409Z,10.27
2019-04-22T06:35:23.378Z,10.20
2019-04-22T06:38:14.550Z,9.03
2019-04-22T06:40:29.688Z,9.23
2019-04-22T06:43:01.092Z,9.87
2019-04-22T06:45:28.821Z,9.27
2019-04-22T06:48:08.293Z,9.10
2019-04-22T06:50:41.655Z,8.20
2019-04-22T06:53:14.584Z,8.40
2019-04-22T06:58:16.705Z,7.80
2019-04-22T07:00:44.610Z,7.30
2019-04-22T07:05:59.962Z,7.57
2019-04-22T07:11:04.526Z,7.67
2019-04-22T07:13:43.141Z,7.37
2019-04-22T07:16:18.611Z,6.73
2019-04-22T07:18:49.881Z,7.20
2019-04-22T07:21:27.154Z,7.10
2019-04-22T07:24:17.870Z,6.20
2019-04-22T07:26:31.956Z,6.60
2019-04-22T07:29:21.709Z,6.43
2019-04-22T07:31:42.909Z,5.70
2019-04-22T07:36:53.558Z,6.43
2019-04-22T07:39:27.407Z,7.87
2019-04-22T07:41:55.939Z,6.67
2019-04-22T07:44:31.113Z,6.20
2019-04-22T07:49:39.435Z,5.50
2019-04-22T07:52:09.795Z,5.33
2019-04-22T07:54:46.758Z,5.70
2019-04-22T07:57:27.951Z,6.00
2019-04-22T08:00:00.744Z,5.40
2019-04-22T08:02:35.004Z,5.73
2019-04-22T08:05:05.080Z,6.40
2019-04-22T08:10:14.978Z,5.60
2019-04-22T08:12:45.732Z,5.87
2019-04-22T08:15:13.165Z,5.50
2019-04-22T08:17:54.982Z,5.43
2019-04-22T08:20:25.229Z,5.23
2019-04-22T08:23:01.222Z,5.17
2019-04-22T08:25:31.536Z,5.57
2019-04-22T08:28:04.658Z,5.30
2019-04-22T08:30:41.483Z,4.93
2019-04-22T08:33:16.153Z,4.90
2019-04-22T08:38:33.636Z,5.53
2019-04-22T08:41:23.071Z,5.37
2019-04-22T08:43:57.792Z,5.37
2019-04-22T08:46:30.271Z,5.53
2019-04-22T08:51:30.797Z,5.37
2019-04-22T08:54:10.257Z,5.40
2019-04-22T08:56:37.609Z,5.63
2019-04-22T08:59:12.479Z,5.00
2019-04-22T09:01:43.475Z,5.67
2019-04-22T09:04:12.039Z,5.53
2019-04-22T09:07:10.551Z,5.50
2019-04-22T09:09:26.836Z,5.60
2019-04-22T09:11:59.907Z,5.17
2019-04-22T09:14:40.467Z,5.40
2019-04-22T09:17:13.658Z,5.57
2019-04-22T09:19:45.536Z,4.67
2019-04-22T09:22:16.837Z,4.80
2019-04-22T09:25:03.823Z,4.67
2019-04-22T09:29:58.551Z,4.73
2019-04-22T09:32:34.849Z,4.87
2019-04-22T09:35:10.255Z,5.33
2019-04-22T09:40:15.853Z,4.73
2019-04-22T09:42:50.387Z,4.70
2019-04-22T09:45:22.897Z,4.73
2019-04-22T09:48:03.250Z,4.47
2019-04-22T09:50:38.449Z,4.87
2019-04-22T09:53:08.403Z,4.83
2019-04-22T09:55:34.474Z,5.03
2019-04-22T09:58:09.449Z,5.57
2019-04-22T10:01:02.734Z,5.50
2019-04-22T10:03:34.214Z,5.70
2019-04-22T10:06:09.974Z,5.70
2019-04-22T10:08:41.008Z,5.40
2019-04-22T10:11:23.970Z,5.07
2019-04-22T10:13:47.609Z,5.63
2019-04-22T10:16:29.187Z,6.03
2019-04-22T10:21:35.317Z,5.43
2019-04-22T10:24:07.386Z,5.70
2019-04-22T10:26:39.106Z,6.10
2019-04-22T10:29:11.032Z,6.37
2019-04-22T10:31:46.608Z,6.93
2019-04-22T10:34:05.894Z,6.33
2019-04-22T10:36:27.810Z,7.00
2019-04-22T10:39:02.185Z,7.13
2019-04-22T10:41:36.661Z,7.13
2019-04-22T10:44:12.903Z,7.07
2019-04-22T10:46:46.274Z,6.93
2019-04-22T10:49:18.448Z,6.90
2019-04-22T10:51:50.824Z,6.83
2019-04-22T10:54:23.353Z,6.33
2019-04-22T10:56:56.883Z,5.73
2019-04-22T10:59:29.253Z,6.07
2019-04-22T11:02:01.433Z,6.20
2019-04-22T11:04:34.542Z,5.60
2019-04-22T11:07:10.119Z,5.37
2019-04-22T11:09:51.694Z,6.00
2019-04-22T11:12:19.319Z,5.13
2019-04-22T11:14:49.749Z,4.93
2019-04-22T11:17:21.929Z,5.50
2019-04-22T11:19:53.803Z,5.27
2019-04-22T11:22:31.266Z,4.80
2019-04-22T11:25:01.285Z,5.20
2019-04-22T11:27:34.953Z,5.60
2019-04-22T11:30:08.098Z,5.57
2019-04-22T11:32:40.553Z,5.30
2019-04-22T11:35:13.918Z,4.33
2019-04-22T11:37:46.689Z,4.70
2019-04-22T11:40:25.497Z,4.77
2019-04-22T11:42:54.290Z,4.13
2019-04-22T11:45:27.090Z,4.00
2019-04-22T11:47:59.614Z,4.47
2019-04-22T11:50:33.564Z,4.23
2019-04-22T11:53:07.072Z,4.10
2019-04-22T11:55:40.590Z,4.33
2019-04-22T11:58:14.883Z,4.27
2019-04-22T12:00:49.410Z,4.13
2019-04-22T12:03:21.358Z,4.10
2019-04-22T12:05:53.658Z,3.77
2019-04-22T12:08:27.104Z,3.80
2019-04-22T12:11:03.608Z,3.97
2019-04-22T12:13:33.900Z,3.70
2019-04-22T12:16:07.510Z,3.63
2019-04-22T12:18:39.855Z,4.27
2019-04-22T12:21:13.174Z,3.83
2019-04-22T12:23:45.441Z,3.60
2019-04-22T12:26:20.587Z,3.50
2019-04-22T12:28:51.328Z,3.40
2019-04-22T12:31:23.804Z,3.53
2019-04-22T12:33:57.351Z,3.60
2019-04-22T12:36:30.587Z,4.20
2019-04-22T12:39:03.326Z,4.20
2019-04-22T12:41:38.242Z,4.60
2019-04-22T12:44:11.691Z,4.77
2019-04-22T12:46:46.017Z,4.43
2019-04-22T12:49:20.369Z,5.30
2019-04-22T12:51:52.687Z,4.90
2019-04-22T12:54:24.738Z,4.90
2019-04-22T12:56:57.737Z,5.03
2019-04-22T12:59:29.992Z,4.93
2019-04-22T13:02:03.017Z,5.70
2019-04-22T13:04:36.253Z,5.20
2019-04-22T13:07:08.265Z,5.23
2019-04-22T13:09:41.256Z,5.10
2019-04-22T13:12:14.929Z,5.83
2019-04-22T13:14:48.773Z,6.27
2019-04-22T13:17:39.634Z,6.73
2019-04-22T13:20:18.029Z,6.63
2019-04-22T13:22:58.927Z,6.00
2019-04-22T13:25:32.645Z,7.10
2019-04-22T13:28:11.350Z,6.90
2019-04-22T13:30:52.444Z,7.00
2019-04-22T13:33:34.622Z,7.63
2019-04-22T13:36:22.133Z,6.83
2019-04-22T13:39:04.855Z,7.17
2019-04-22T13:41:50.263Z,8.00
2019-04-22T13:44:25.023Z,7.80
2019-04-22T13:47:17.046Z,7.33
2019-04-22T13:55:32.747Z,8.30
2019-04-22T13:58:02.560Z,8.97
2019-04-22T14:00:34.207Z,8.50
2019-04-22T14:03:26.665Z,9.07
2019-04-22T14:06:08.854Z,8.80
2019-04-22T14:08:45.172Z,9.17
2019-04-22T14:11:34.517Z,8.60
2019-04-22T14:14:06.869Z,8.50
2019-04-22T14:16:46.906Z,8.97
2019-04-22T14:19:27.775Z,9.80
2019-04-22T14:22:02.118Z,9.63
2019-04-22T14:24:40.670Z,9.67
2019-04-22T14:27:30.614Z,9.03
2019-04-22T14:29:59.928Z,9.43
2019-04-22T14:32:33.935Z,9.90
2019-04-22T14:35:13.510Z,9.10
2019-04-22T14:37:52.258Z,9.20
2019-04-22T14:40:26.349Z,9.33
2019-04-22T14:43:21.409Z,9.80
2019-04-22T14:46:04.292Z,9.90
2019-04-22T14:48:36.019Z,9.47
2019-04-22T14:50:55.998Z,9.63
2019-04-22T14:53:39.979Z,9.90
2019-04-22T14:55:48.547Z,9.37
2019-04-22T14:58:22.649Z,9.80
2019-04-22T15:00:55.269Z,9.60
2019-04-22T15:03:27.910Z,9.43
2019-04-22T15:05:59.951Z,8.57
2019-04-22T15:08:33.019Z,9.90
2019-04-22T15:11:06.312Z,9.27
2019-04-22T15:13:39.092Z,10.30
2019-04-22T15:16:26.124Z,9.83
2019-04-22T15:19:17.879Z,9.60
2019-04-22T15:21:50.348Z,10.27
2019-04-22T15:24:27.520Z,9.90
2019-04-22T15:27:00.735Z,8.97
2019-04-22T15:29:33.600Z,9.00
2019-04-22T15:32:07.548Z,9.27
2019-04-22T15:34:39.646Z,9.30
2019-04-22T15:37:11.950Z,9.40
2019-04-22T15:39:45.617Z,9.17
2019-04-22T15:42:25.703Z,9.57
2019-04-22T15:44:53.876Z,9.20
2019-04-22T15:47:27.079Z,9.80
2019-04-22T15:50:00.269Z,11.30
2019-04-22T15:52:43.372Z,10.27
2019-04-22T15:55:06.736Z,10.67
2019-04-22T15:57:39.863Z,10.30
2019-04-22T16:00:25.554Z,11.00
2019-04-22T16:02:45.805Z,11.70
2019-04-22T16:05:20.388Z,12.27
2019-04-22T16:07:53.084Z,11.37
2019-04-22T16:10:26.078Z,11.27
2019-04-22T16:13:07.346Z,11.33
2019-04-22T16:15:32.039Z,12.03
2019-04-22T16:18:05.260Z,11.10
2019-04-22T16:20:38.410Z,11.27
2019-04-22T16:23:20.178Z,11.27
2019-04-22T16:26:01.393Z,11.23
2019-04-22T16:28:35.244Z,12.20
2019-04-22T16:31:07.478Z,11.60
2019-04-22T16:33:41.461Z,11.60
2019-04-22T16:36:13.366Z,10.90
2019-04-22T16:38:46.769Z,10.67
2019-04-22T16:41:19.150Z,11.30
2019-04-22T16:43:51.248Z,11.27
2019-04-22T16:46:23.580Z,11.63
2019-04-22T16:48:56.034Z,11.57
2019-04-22T16:51:28.218Z,11.83
2019-04-22T16:54:00.383Z,11.67
2019-04-22T16:56:35.092Z,12.03
2019-04-22T16:59:06.653Z,11.10
2019-04-22T17:02:01.102Z,11.60
2019-04-22T17:04:55.879Z,12.20
2019-04-22T17:07:29.980Z,11.40
2019-04-22T17:10:03.812Z,12.03
2019-04-22T17:12:45.751Z,11.90
2019-04-22T17:15:12.701Z,12.60
2019-04-22T17:17:45.297Z,13.20
2019-04-22T17:20:18.918Z,13.23
2019-04-22T17:22:51.565Z,12.13
2019-04-22T17:25:24.838Z,13.10
2019-04-22T17:27:57.465Z,12.70
2019-04-22T17:30:30.997Z,12.97
2019-04-22T17:33:05.226Z,13.20
2019-04-22T17:35:38.195Z,13.07
2019-04-22T17:38:20.984Z,14.63
2019-04-22T17:40:56.208Z,13.70
2019-04-22T17:43:47.757Z,13.70
2019-04-22T17:46:40.260Z,12.90
2019-04-22T17:49:37.239Z,13.30
2019-04-22T17:55:07.534Z,12.10
2019-04-22T17:57:31.683Z,12.80
2019-04-22T18:00:00.904Z,13.27
2019-04-22T18:02:26.765Z,16.17
2019-04-22T18:04:57.414Z,14.60
2019-04-22T18:07:47.557Z,13.20
2019-04-22T18:12:59.927Z,11.30
2019-04-22T18:15:23.774Z,11.57
2019-04-22T18:18:08.723Z,10.73
2019-04-22T18:20:28.139Z,11.27
2019-04-22T18:22:54.671Z,12.23
2019-04-22T18:25:39.482Z,10.77
2019-04-22T18:28:17.283Z,10.70
2019-04-22T18:30:41.208Z,10.33
2019-04-22T18:33:19.066Z,10.00
2019-04-22T18:35:57.283Z,9.60
2019-04-22T18:38:42.344Z,10.47
2019-04-22T18:41:03.526Z,10.50
2019-04-22T18:43:42.559Z,10.93
2019-04-22T18:46:11.329Z,10.20
2019-04-22T18:48:46.132Z,11.17
2019-04-22T18:51:25.101Z,10.40
2019-04-22T18:54:06.222Z,11.07
2019-04-22T18:56:43.761Z,10.20
2019-04-22T18:59:07.729Z,10.67
2019-04-22T19:01:28.140Z,11.47
2019-04-22T19:04:08.994Z,11.33
2019-04-22T19:06:56.344Z,12.27
2019-04-22T19:09:41.457Z,12.50
2019-04-22T19:12:23.027Z,11.67
2019-04-22T19:14:52.919Z,11.27
2019-04-22T19:17:28.542Z,11.00
2019-04-22T19:19:56.130Z,10.33
2019-04-22T19:22:29.816Z,9.80
2019-04-22T19:24:54.714Z,10.77
2019-04-22T19:27:31.230Z,10.70
2019-04-22T19:30:14.222Z,10.63
2019-04-22T19:32:40.467Z,10.10
2019-04-22T19:35:11.579Z,10.87
2019-04-22T19:37:41.325Z,10.93
2019-04-22T19:40:24.121Z,9.90
2019-04-22T19:43:00.560Z,9.53
2019-04-22T19:45:29.145Z,9.63
2019-04-22T19:48:15.797Z,9.60
2019-04-22T19:50:45.037Z,11.30
2019-04-22T19:53:19.608Z,11.70
2019-04-22T19:55:46.973Z,11.50
2019-04-22T19:58:18.712Z,11.00
2019-04-22T20:01:15.015Z,12.07
2019-04-22T20:04:19.702Z,11.00
2019-04-22T20:06:47.848Z,11.93
2019-04-22T20:09:26.828Z,11.80
2019-04-22T20:11:56.463Z,11.67
2019-04-22T20:14:37.394Z,11.47
2019-04-22T20:17:00.658Z,11.90
2019-04-22T20:19:45.764Z,12.10
2019-04-22T20:22:12.699Z,12.43
2019-04-22T20:24:30.332Z,12.77
2019-04-22T20:27:18.876Z,12.43
2019-04-22T20:29:56.434Z,12.80
2019-04-22T20:32:27.869Z,12.00
2019-04-22T20:35:02.782Z,12.60
2019-04-22T20:37:38.419Z,12.93
2019-04-22T20:40:10.786Z,12.77
2019-04-22T20:42:48.705Z,13.00
2019-04-22T20:45:15.308Z,12.70
2019-04-22T20:47:42.609Z,12.70
2019-04-22T20:50:23.810Z,11.90
2019-04-22T20:53:06.898Z,12.10
2019-04-22T20:55:25.512Z,12.37
2019-04-22T20:58:05.161Z,11.70
2019-04-22T21:00:36.565Z,11.87
2019-04-22T21:03:05.242Z,11.13
2019-04-22T21:05:40.576Z,12.10
2019-04-22T21:08:23.894Z,11.70
2019-04-22T21:10:49.381Z,11.30
2019-04-22T21:13:21.909Z,10.63
2019-04-22T21:16:04.589Z,11.97
2019-04-22T21:18:30.486Z,11.70
2019-04-22T21:21:17.015Z,11.00
2019-04-22T21:23:38.411Z,11.17
2019-04-22T21:26:20.840Z,11.80
2019-04-22T21:28:53.491Z,11.13
2019-04-22T21:31:32.391Z,10.50
2019-04-22T21:33:56.148Z,10.40
2019-04-22T21:36:40.390Z,10.23
2019-04-22T21:39:03.680Z,10.10
2019-04-22T21:41:44.680Z,10.33
2019-04-22T21:44:15.000Z,10.83
2019-04-22T21:46:59.719Z,10.83
2019-04-22T21:49:25.059Z,10.63
2019-04-22T21:52:03.460Z,11.33
2019-04-22T21:54:31.640Z,11.43
2019-04-22T21:57:27.771Z,11.30
2019-04-22T22:00:13.359Z,11.73
2019-04-22T22:02:43.814Z,10.97
2019-04-22T22:05:04.532Z,11.63
2019-04-22T22:07:28.808Z,11.53
2019-04-22T22:10:16.525Z,12.77
2019-04-22T22:12:54.933Z,12.90
2019-04-22T22:15:26.159Z,12.20
2019-04-22T22:17:54.503Z,11.97
2019-04-22T22:20:36.017Z,11.67
2019-04-22T22:23:20.699Z,14.13
2019-04-22T22:25:40.050Z,12.30
2019-04-22T22:28:33.175Z,12.63
2019-04-22T22:30:54.743Z,12.13
2019-04-22T22:33:24.189Z,11.27
2019-04-22T22:35:58.054Z,11.57
2019-04-22T22:38:27.346Z,11.20
2019-04-22T22:40:45.868Z,11.77
2019-04-22T22:43:27.782Z,11.23
2019-04-22T22:46:06.271Z,10.63
2019-04-22T22:48:53.605Z,11.03
2019-04-22T22:51:30.605Z,10.57
2019-04-22T22:54:01.086Z,11.30
2019-04-22T22:56:40.974Z,11.40
2019-04-22T22:58:58.567Z,11.17
2019-04-22T23:01:36.020Z,10.10
2019-04-22T23:04:29.666Z,10.87
2019-04-22T23:06:48.231Z,10.43
2019-04-22T23:09:14.589Z,10.50
2019-04-22T23:12:06.177Z,9.80
2019-04-22T23:14:30.066Z,9.37
2019-04-22T23:16:46.759Z,9.70
2019-04-22T23:19:11.111Z,9.93
2019-04-22T23:21:46.869Z,9.37
2019-04-22T23:24:48.168Z,9.53
2019-04-22T23:27:44.391Z,9.50
2019-04-22T23:30:25.441Z,8.63
2019-04-22T23:33:09.856Z,7.97
2019-04-22T23:35:51.878Z,7.70
2019-04-22T23:38:42.558Z,7.47
2019-04-22T23:41:42.098Z,6.80
2019-04-22T23:44:11.371Z,7.30
2019-04-22T23:46:41.490Z,7.43
2019-04-22T23:49:15.039Z,7.20
2019-04-22T23:52:03.789Z,6.77
2019-04-22T23:54:35.896Z,7.10
2019-04-22T23:56:57.042Z,6.30
